M I D A S
Marine Information and Data Acquisition System
Tripno 1832 of the Zeeleeuw from 2009-09-08 06:42:32 to 2009-09-08 15:46:46
Back to CruiseResearch ActivitiesStationsMapUnderway DataData graphs

EquipmentUnitsComment
TimeDGPSUTC
LatitudeDGPSDM.mWGS84
LongitudeDGPSDM.mWGS84
TemperatureSBE03/SBE38deg celciusITS90
ConductivitySBE21S/mITS90
SalinitySBE21 Practical Salinity Units
ChlorophylAChelsea fluorimeterg/lCalibrated in Aceton
Missing or incorrect values are displayed as -999
Sea surface data collected by the RV Zeeleeuw from 2009-09-08 06:35:41 to 2009-09-08 17:01:32
Time Latitude Longitude Temperature Conductivity Salinity ChlorophylA
2009-09-08 06:36:50 51°13.681 2°55.884 21.4664 0.056512 0.301609 39.047094
2009-09-08 06:37:50 51°13.695 2°55.787 21.497 0.056615 0.302173 39.01227
2009-09-08 06:38:48 51°13.694 2°55.738 21.4987 0.056615 0.302178 39.01227
2009-09-08 06:39:46 51°13.717 2°55.737 21.5606 0.061349 0.328251 39.01227
2009-09-08 06:40:46 51°13.777 2°55.683 21.4436 0.059393 0.317452 39.047094
2009-09-08 06:41:46 51°13.887 2°55.594 21.4721 0.056512 0.301655 39.047094
2009-09-08 06:42:46 51°14.022 2°55.498 21.4875 0.055689 0.297135 39.01227
2009-09-08 06:43:46 51°14.173 2°55.374 21.5346 0.058879 0.314679 39.01227
2009-09-08 06:44:46 51°14.304 2°55.179 21.4431 0.055071 0.293735 39.01227
2009-09-08 06:45:46 51°14.441 2°54.968 21.4379 0.052087 0.27741 39.01227
2009-09-08 06:46:46 51°14.599 2°54.8 21.481 0.05538 0.29548 38.977445
2009-09-08 06:47:46 51°14.759 2°54.638 21.5179 0.057026 0.304533 39.01227
2009-09-08 06:48:46 51°14.917 2°54.475 21.5128 0.057438 0.306791 38.977445
2009-09-08 06:49:46 51°15.077 2°54.316 21.5142 0.056203 0.300025 39.01227
2009-09-08 06:50:46 51°15.238 2°54.16 21.4928 0.058158 0.310776 39.01227
2009-09-08 06:51:46 51°15.4 2°54.004 21.4932 0.057438 0.306828 39.01227
2009-09-08 06:52:46 51°15.566 2°53.852 21.5297 0.055997 0.298913 39.01227
2009-09-08 06:53:46 51°15.73 2°53.695 21.5406 0.055483 0.296099 38.977445
2009-09-08 06:54:46 51°15.895 2°53.538 21.5246 0.057026 0.304585 38.977445
2009-09-08 06:55:46 51°16.059 2°53.377 21.5323 0.054042 0.28821 39.01227
2009-09-08 06:56:46 51°16.224 2°53.22 21.5715 0.055894 0.298379 39.01227
2009-09-08 06:57:46 51°16.39 2°53.062 21.5367 0.057747 0.308554 38.977445
2009-09-08 06:58:46 51°16.555 2°52.904 21.5628 0.058364 0.312046 38.977445
2009-09-08 06:59:46 51°16.721 2°52.744 21.5724 0.056615 0.302374 38.977445
2009-09-08 07:00:46 51°16.891 2°52.617 21.5327 0.060217 0.322265 38.977445
2009-09-08 07:01:46 51°17.07 2°52.533 21.5095 0.052601 0.280413 38.977445
2009-09-08 07:02:46 51°17.252 2°52.485 21.4853 0.052087 0.277627 38.977445
2009-09-08 07:03:46 51°17.435 2°52.457 21.4946 0.049823 0.265231 39.01227
2009-09-08 07:04:46 51°17.619 2°52.429 21.4992 0.049926 0.265819 39.01227
2009-09-08 07:05:46 51°17.804 2°52.405 21.4927 0.052601 0.28049 39.01227
2009-09-08 07:06:46 51°17.989 2°52.379 21.5098 0.051881 0.276579 38.977445
2009-09-08 07:07:46 51°18.174 2°52.345 21.5268 0.052498 0.279927 38.977445
2009-09-08 07:08:46 51°18.36 2°52.31 21.5259 0.051778 0.276031 38.977445
2009-09-08 07:09:46 51°18.546 2°52.271 21.5334 0.052293 0.278889 38.977445
2009-09-08 07:10:46 51°18.733 2°52.233 21.5546 0.051366 0.27384 38.977445
2009-09-08 07:11:46 51°18.92 2°52.195 21.5589 0.051469 0.274402 38.977445
2009-09-08 07:12:46 51°19.105 2°52.147 21.5627 0.053425 0.28516 38.942621
2009-09-08 07:13:46 51°19.291 2°52.103 21.5658 0.053733 0.286854 38.942621
2009-09-08 07:14:46 51°19.477 2°52.064 21.601 0.054145 0.289202 38.977445
2009-09-08 07:15:46 51°19.659 2°51.977 21.5886 0.054248 0.289761 38.942621
2009-09-08 07:16:46 51°19.841 2°51.88 21.6154 0.054145 0.289202 38.942621
2009-09-08 07:17:46 51°20.023 2°51.783 21.5923 0.052601 0.280763 38.907797
2009-09-08 07:18:46 51°20.205 2°51.686 21.6195 0.05363 0.286418 38.907797
2009-09-08 07:19:46 51°20.39 2°51.59 21.647 0.054454 0.290933 38.907797
2009-09-08 07:20:46 51°20.575 2°51.494 21.6583 0.053836 0.287506 38.907797
2009-09-08 07:21:46 51°20.76 2°51.4 21.6628 0.054042 0.288851 38.907797
2009-09-08 07:22:46 51°20.946 2°51.305 21.6615 0.053733 0.287056 38.907797
2009-09-08 07:23:46 51°21.131 2°51.209 21.7016 0.055174 0.295084 38.907797
2009-09-08 07:24:46 51°21.313 2°51.111 21.6739 0.054762 0.292715 38.872973
2009-09-08 07:25:46 51°21.495 2°51.014 21.7127 0.053527 0.286065 38.907797
2009-09-08 07:26:46 51°21.677 2°50.92 21.7208 0.055586 0.297237 38.907797
2009-09-08 07:27:46 51°21.86 2°50.827 21.7304 0.054145 0.289489 38.872973
2009-09-08 07:28:46 51°22.044 2°50.736 21.7396 0.054557 0.291977 38.872973
2009-09-08 07:29:46 51°22.228 2°50.644 21.7541 0.054762 0.293072 38.872973
2009-09-08 07:30:46 51°22.412 2°50.552 21.7689 0.054351 0.290937 38.872973
2009-09-08 07:31:46 51°22.596 2°50.457 21.7562 0.058055 0.311519 38.872973
2009-09-08 07:32:46 51°22.774 2°50.337 21.7711 0.056409 0.302229 38.872973
2009-09-08 07:33:46 51°22.951 2°50.214 21.804 0.054968 0.294439 38.872973
2009-09-08 07:34:46 51°23.128 2°50.091 21.809 0.056409 0.302442 38.872973
2009-09-08 07:35:46 51°23.307 2°49.972 21.825 0.057026 0.305805 38.872973
2009-09-08 07:36:46 51°23.485 2°49.852 21.8121 0.056409 0.302468 38.872973
2009-09-08 07:37:46 51°23.664 2°49.732 21.8278 0.054659 0.292803 38.872973
2009-09-08 07:38:46 51°23.841 2°49.611 21.8636 0.055277 0.296253 38.872973
2009-09-08 07:39:46 51°24.019 2°49.489 21.8772 0.05538 0.296891 38.872973
2009-09-08 07:40:46 51°24.196 2°49.365 21.8815 0.055997 0.300243 38.872973
2009-09-08 07:41:46 51°24.372 2°49.239 21.8907 0.057335 0.307744 38.872973
2009-09-08 07:42:46 51°24.549 2°49.115 21.9164 0.056821 0.304913 38.872973
2009-09-08 07:43:46 51°24.726 2°48.992 21.9242 0.053939 0.289059 38.872973
2009-09-08 07:44:46 51°24.878 2°48.88 21.945 0.061246 0.329439 38.872973
2009-09-08 07:45:46 51°25 2°48.796 21.9577 0.064642 0.348345 38.872973
2009-09-08 07:46:46 51°25.118 2°48.735 21.9674 0.059599 0.320425 38.872973
2009-09-08 07:47:46 51°25.2 2°48.7 21.9511 0.058673 0.3153 38.872973
2009-09-08 07:48:46 51°25.245 2°48.722 21.9356 0.054557 0.292594 38.872973
2009-09-08 07:49:46 51°25.237 2°48.766 21.9657 0.052807 0.282937 38.872973
2009-09-08 07:50:46 51°25.189 2°48.773 21.9639 0.05785 0.31084 38.838149
2009-09-08 07:51:46 51°25.138 2°48.72 22.0384 0.067626 0.365244 38.838149
2009-09-08 07:52:46 51°25.1 2°48.621 22.0261 0.062172 0.334806 38.838149
2009-09-08 07:53:46 51°25.092 2°48.511 22.0353 0.063201 0.340508 38.838149
2009-09-08 07:54:46 51°25.113 2°48.433 22.0711 0.066083 0.356598 38.838149
2009-09-08 07:55:46 51°25.142 2°48.397 22.0549 0.063613 0.342715 38.838149
2009-09-08 07:56:46 51°25.163 2°48.397 22.0667 0.060731 0.326828 38.838149
2009-09-08 07:57:46 51°25.165 2°48.43 22.1016 0.065156 0.351514 38.838149
2009-09-08 07:58:46 51°25.131 2°48.505 22.0839 0.06423 0.346311 38.838149
2009-09-08 07:59:46 51°25.074 2°48.532 22.1169 0.066288 0.357781 38.838149
2009-09-08 08:00:46 51°25.013 2°48.516 22.1281 0.065053 0.350905 38.838149
2009-09-08 08:01:46 51°24.957 2°48.462 22.1385 0.064951 0.3504 38.838149
2009-09-08 08:02:46 51°24.913 2°48.383 22.1643 0.065568 0.353816 38.838149
2009-09-08 08:03:46 51°24.875 2°48.3 22.1474 0.068141 0.368163 38.838149
2009-09-08 08:04:46 51°24.84 2°48.215 22.1772 0.065259 0.352056 38.838149
2009-09-08 08:05:46 51°24.813 2°48.124 22.1757 0.066906 0.361237 38.803325
2009-09-08 08:06:46 51°24.795 2°48.029 22.1942 0.070714 0.382528 38.838149
2009-09-08 08:07:46 51°24.781 2°47.932 22.2036 0.068449 0.369865 38.803325
2009-09-08 08:08:46 51°24.768 2°47.834 22.2129 0.068347 0.369317 38.803325
2009-09-08 08:09:46 51°24.756 2°47.737 22.234 0.070611 0.381979 38.803325
2009-09-08 08:10:46 51°24.741 2°47.64 22.2469 0.068347 0.369304 38.803325
2009-09-08 08:11:46 51°24.727 2°47.543 22.2549 0.069376 0.375116 38.803325
2009-09-08 08:12:46 51°24.713 2°47.446 22.2705 0.069067 0.373348 38.803325
2009-09-08 08:13:46 51°24.698 2°47.348 22.2729 0.071537 0.387196 38.803325
2009-09-08 08:14:46 51°24.683 2°47.251 22.291 0.070611 0.381999 38.803325
2009-09-08 08:15:46 51°24.663 2°47.157 22.3022 0.071948 0.389478 38.803325
2009-09-08 08:16:46 51°24.639 2°47.065 22.2989 0.07164 0.387792 38.803325
2009-09-08 08:17:46 51°24.608 2°46.979 22.3201 0.068449 0.369916 38.803325
2009-09-08 08:18:46 51°24.573 2°46.896 22.3401 0.070096 0.379138 38.768501
2009-09-08 08:19:46 51°24.534 2°46.818 22.3339 0.072875 0.394632 38.803325
2009-09-08 08:20:46 51°24.492 2°46.742 22.3589 0.071846 0.388889 38.803325
2009-09-08 08:21:46 51°24.45 2°46.665 22.3377 0.07308 0.395784 38.768501
2009-09-08 08:22:46 51°24.41 2°46.586 22.3698 0.070816 0.383163 38.803325
2009-09-08 08:23:46 51°24.369 2°46.506 22.3858 0.070302 0.380295 38.768501
2009-09-08 08:24:46 51°24.327 2°46.426 22.3961 0.06989 0.377976 38.768501
2009-09-08 08:25:46 51°24.285 2°46.345 22.3942 0.071125 0.384888 38.768501
2009-09-08 08:26:46 51°24.244 2°46.266 22.4165 0.070096 0.379145 38.768501
2009-09-08 08:27:46 51°24.204 2°46.186 22.4319 0.070714 0.382614 38.733677
2009-09-08 08:28:46 51°24.163 2°46.104 22.4258 0.071228 0.385477 38.733677
2009-09-08 08:29:46 51°24.132 2°46.014 22.4489 0.06989 0.377995 38.733677
2009-09-08 08:30:46 51°24.117 2°45.918 22.4593 0.071846 0.388963 38.733677
2009-09-08 08:31:46 51°24.112 2°45.819 22.4739 0.071022 0.384286 38.733677
2009-09-08 08:32:46 51°24.116 2°45.719 22.4824 0.069479 0.375671 38.733677
2009-09-08 08:33:46 51°24.138 2°45.636 22.4831 0.070714 0.382614 38.733677
2009-09-08 08:34:46 51°24.17 2°45.577 22.4852 0.069376 0.37509 38.733677
2009-09-08 08:35:46 51°24.196 2°45.568 22.4565 0.061863 0.333227 38.698853
2009-09-08 08:36:46 51°24.192 2°45.594 22.5142 0.065568 0.353853 38.698853
2009-09-08 08:37:46 51°24.174 2°45.601 22.5142 0.073492 0.3982 38.698853
2009-09-08 08:38:46 51°24.144 2°45.653 22.5997 0.098809 0.541514 38.698853
2009-09-08 08:39:46 51°24.161 2°45.818 22.4334 0.355839 2.083854 38.803325
2009-09-08 08:40:46 51°24.204 2°46.017 22.4691 0.062892 0.338824 38.768501
2009-09-08 08:41:46 51°24.259 2°46.258 22.4842 0.064539 0.348154 38.698853
2009-09-08 08:42:46 51°24.314 2°46.502 22.5015 0.063098 0.340291 38.664029
2009-09-08 08:43:46 51°24.371 2°46.743 22.521 0.073286 0.397269 38.664029
2009-09-08 08:44:46 51°24.444 2°46.976 22.5358 0.062892 0.339201 38.629205
2009-09-08 08:45:46 51°24.517 2°47.21 22.5572 0.06032 0.324875 38.594381
2009-09-08 08:46:46 51°24.592 2°47.441 22.5755 0.059393 0.319745 38.594381
2009-09-08 08:47:46 51°24.669 2°47.67 22.5985 0.059496 0.320298 38.594381
2009-09-08 08:48:46 51°24.74 2°47.903 22.6153 0.058879 0.316892 38.559557
2009-09-08 08:49:46 51°24.808 2°48.138 22.644 0.06104 0.328874 38.559557
2009-09-08 08:50:46 51°24.908 2°48.339 22.654 0.060422 0.325389 38.524733
2009-09-08 08:51:46 51°24.997 2°48.487 22.6801 0.06032 0.32487 38.489909
2009-09-08 08:52:46 51°24.979 2°48.558 22.7053 0.06176 0.332945 38.489909
2009-09-08 08:53:46 51°24.923 2°48.551 22.7345 0.065465 0.353477 38.455085
2009-09-08 08:54:46 51°24.881 2°48.491 22.7653 0.08224 0.447717 38.455085
2009-09-08 08:55:46 51°24.867 2°48.456 22.7963 0.099941 0.548296 38.455085
2009-09-08 08:56:46 51°24.856 2°48.426 22.8036 0.087385 0.47691 38.420261
2009-09-08 08:57:46 51°24.844 2°48.396 22.8104 0.075139 0.407598 38.420261
2009-09-08 08:58:46 51°24.831 2°48.366 22.8442 0.068964 0.37302 38.385437
2009-09-08 08:59:46 51°24.819 2°48.335 22.8772 0.069787 0.377605 38.385437
2009-09-08 09:00:46 51°24.808 2°48.305 22.9058 0.078844 0.428508 38.350613
2009-09-08 09:01:46 51°24.796 2°48.273 22.9261 0.077094 0.418575 38.350613
2009-09-08 09:02:46 51°24.783 2°48.242 22.9474 0.070302 0.380507 38.350613
2009-09-08 09:03:46 51°24.771 2°48.212 22.9586 0.06917 0.374117 38.350613
2009-09-08 09:04:46 51°24.758 2°48.181 22.9887 0.070508 0.381571 38.315788
2009-09-08 09:05:46 51°24.745 2°48.149 23.0055 0.06917 0.374235 38.315788
2009-09-08 09:06:46 51°24.733 2°48.118 23.0364 0.077814 0.42266 38.315788
2009-09-08 09:07:46 51°24.721 2°48.088 23.0553 0.071537 0.387466 38.315788
2009-09-08 09:08:46 51°24.708 2°48.056 23.0832 0.076065 0.412753 38.280964
2009-09-08 09:09:46 51°24.695 2°48.026 23.1084 0.066083 0.356902 38.280964
2009-09-08 09:10:46 51°24.682 2°47.995 23.1213 0.069273 0.374796 38.280964
2009-09-08 09:11:46 51°24.669 2°47.965 23.1612 0.07236 0.39202 38.280964
2009-09-08 09:12:46 51°24.657 2°47.936 23.1716 0.072978 0.395463 38.24614
2009-09-08 09:13:46 51°24.643 2°47.906 23.2027 0.069273 0.374777 38.24614
2009-09-08 09:14:46 51°24.63 2°47.877 23.2214 0.075345 0.408717 38.24614
2009-09-08 09:15:46 51°24.627 2°47.827 23.2517 0.099015 0.542907 38.24614
2009-09-08 09:16:46 51°24.66 2°47.762 23.24 0.063818 0.344198 38.211316
2009-09-08 09:17:46 51°24.723 2°47.811 23.2919 0.087694 0.478482 38.211316
2009-09-08 09:18:46 51°24.837 2°47.946 23.2894 0.061863 0.333348 38.211316
2009-09-08 09:19:46 51°24.968 2°48.099 23.3151 0.064642 0.348841 38.211316
2009-09-08 09:20:46 51°25.1 2°48.257 23.3421 0.060114 0.323662 38.176492
2009-09-08 09:21:46 51°25.233 2°48.412 23.36 0.06032 0.324746 38.176492
2009-09-08 09:22:46 51°25.363 2°48.574 23.3817 0.061554 0.331618 38.176492
2009-09-08 09:23:46 51°25.492 2°48.736 23.4094 0.059496 0.320149 38.176492
2009-09-08 09:24:46 51°25.62 2°48.896 23.4315 0.05929 0.319054 38.176492
2009-09-08 09:25:46 51°25.748 2°49.057 23.4512 0.059702 0.321344 38.176492
2009-09-08 09:26:46 51°25.879 2°49.214 23.4756 0.066288 0.357911 38.176492
2009-09-08 09:27:46 51°26.007 2°49.378 23.4918 0.063304 0.341333 38.176492
2009-09-08 09:28:46 51°26.135 2°49.545 23.5192 0.061966 0.333907 38.176492
2009-09-08 09:29:46 51°26.263 2°49.712 23.5409 0.062172 0.33502 38.141668
2009-09-08 09:30:46 51°26.392 2°49.881 23.5558 0.06104 0.328754 38.141668
2009-09-08 09:31:46 51°26.52 2°50.051 23.5858 0.066803 0.360815 38.141668
2009-09-08 09:32:46 51°26.649 2°50.219 23.5946 0.066391 0.358466 38.141668
2009-09-08 09:33:46 51°26.777 2°50.389 23.6302 0.064436 0.347485 38.106844
2009-09-08 09:34:46 51°26.905 2°50.56 23.6467 0.061452 0.331031 38.141668
2009-09-08 09:35:46 51°27.032 2°50.732 23.6648 0.062275 0.335585 38.141668
2009-09-08 09:36:46 51°27.158 2°50.904 23.6867 0.060114 0.323578 38.141668
2009-09-08 09:37:46 51°27.285 2°51.076 23.7117 0.059599 0.320741 38.106844
2009-09-08 09:38:46 51°27.41 2°51.247 23.7324 0.061554 0.331613 38.106844
2009-09-08 09:39:46 51°27.536 2°51.417 23.7511 0.059805 0.321902 38.106844
2009-09-08 09:40:46 51°27.663 2°51.584 23.7697 0.062275 0.335591 38.106844
2009-09-08 09:41:46 51°27.789 2°51.75 23.7967 0.067112 0.36261 38.07202
2009-09-08 09:42:46 51°27.917 2°51.911 23.8137 0.068964 0.372936 38.106844
2009-09-08 09:43:46 51°28.043 2°52.074 23.8334 0.066083 0.356809 38.07202
2009-09-08 09:44:46 51°28.166 2°52.242 23.85 0.064436 0.347678 38.106844
2009-09-08 09:45:46 51°28.29 2°52.409 24.0184 0.470543 2.802247 38.141668
2009-09-08 09:46:46 51°28.415 2°52.572 23.9801 0.075756 0.411005 38.106844
2009-09-08 09:47:46 51°28.542 2°52.732 23.9929 0.102102 0.560556 38.07202
2009-09-08 09:48:46 51°28.671 2°52.887 24.0063 0.099735 0.547121 38.037196
2009-09-08 09:49:46 51°28.799 2°53.044 24.0207 0.096854 0.53078 38.07202
2009-09-08 09:50:46 51°28.925 2°53.203 24.0355 0.085327 0.465241 38.037196
2009-09-08 09:51:46 51°29.034 2°53.391 24.0505 0.090164 0.492674 38.037196
2009-09-08 09:52:46 51°29.135 2°53.593 24.0649 0.085121 0.464069 38.002372
2009-09-08 09:53:46 51°29.239 2°53.789 24.0812 0.081828 0.445411 38.002372
2009-09-08 09:54:46 51°29.34 2°53.99 24.0971 0.081828 0.445419 37.967548
2009-09-08 09:55:46 51°29.442 2°54.19 23.4834 0.095413 0.521941 37.793428
2009-09-08 09:56:46 51°29.546 2°54.384 23.6162 0.077506 0.421346 37.758604
2009-09-08 09:57:46 51°29.649 2°54.579 23.5735 0.073904 0.400975 37.72378
2009-09-08 09:58:46 51°29.751 2°54.775 23.6178 0.07164 0.388185 37.688955
2009-09-08 09:59:46 51°29.854 2°54.972 23.597 0.067935 0.36754 37.654131
2009-09-08 10:00:46 51°29.961 2°55.161 23.6281 0.064024 0.345684 37.654131
2009-09-08 10:01:46 51°30.068 2°55.352 23.652 0.065156 0.351997 37.619307
2009-09-08 10:02:46 51°30.175 2°55.546 23.6951 0.068552 0.370916 37.619307
2009-09-08 10:03:46 51°30.28 2°55.742 23.6934 0.067317 0.364011 37.619307
2009-09-08 10:04:46 51°30.389 2°55.932 23.6977 0.059393 0.319856 37.584483
2009-09-08 10:05:46 51°30.5 2°56.121 23.7125 0.059599 0.321007 37.549659
2009-09-08 10:06:46 51°30.61 2°56.314 23.7282 0.057541 0.309584 37.584483
2009-09-08 10:07:46 51°30.723 2°56.5 23.7159 0.055792 0.299894 37.549659
2009-09-08 10:08:46 51°30.832 2°56.691 23.7222 0.059702 0.321555 37.549659
2009-09-08 10:09:46 51°30.942 2°56.881 23.7275 0.057129 0.307362 37.549659
2009-09-08 10:10:46 51°31.059 2°57.059 23.7628 0.056409 0.303324 37.549659
2009-09-08 10:11:46 51°31.176 2°57.236 23.7838 0.057026 0.306756 37.514835
2009-09-08 10:12:46 51°31.292 2°57.414 23.7938 0.055277 0.297009 37.514835
2009-09-08 10:13:46 51°31.404 2°57.598 23.7582 0.055174 0.296508 37.514835
2009-09-08 10:14:46 51°31.518 2°57.777 23.8029 0.05538 0.297669 37.514835
2009-09-08 10:15:46 51°31.639 2°57.945 23.8389 0.053733 0.288557 37.514835
2009-09-08 10:16:46 51°31.755 2°58.123 23.8046 0.05291 0.284029 37.514835
2009-09-08 10:17:46 51°31.883 2°58.279 23.8315 0.054557 0.293118 37.514835
2009-09-08 10:18:46 51°32.028 2°58.398 23.8324 0.05291 0.284 37.514835
2009-09-08 10:19:46 51°32.18 2°58.5 23.8788 0.055483 0.298191 37.514835
2009-09-08 10:20:46 51°32.332 2°58.608 23.8633 0.054351 0.291969 37.480011
2009-09-08 10:21:46 51°32.484 2°58.72 23.8678 0.054968 0.295358 37.514835
2009-09-08 10:22:46 51°32.634 2°58.836 23.864 0.053219 0.285758 37.514835
2009-09-08 10:23:46 51°32.79 2°58.93 23.8742 0.05219 0.280004 37.480011
2009-09-08 10:24:46 51°32.951 2°59.004 23.9214 0.053116 0.285088 37.514835
2009-09-08 10:25:46 51°33.111 2°59.07 23.9262 0.052396 0.281121 37.480011
2009-09-08 10:26:46 51°33.272 2°59.138 23.9083 0.051469 0.276035 37.480011
2009-09-08 10:27:46 51°33.435 2°59.183 23.9374 0.049926 0.267562 37.514835
2009-09-08 10:28:46 51°33.596 2°59.202 23.9329 0.051469 0.276045 37.514835
2009-09-08 10:29:46 51°33.693 2°59.205 23.9209 0.055483 0.298191 37.514835
2009-09-08 10:30:46 51°33.753 2°59.192 23.9364 0.053939 0.289696 37.480011
2009-09-08 10:31:46 51°33.801 2°59.183 23.9444 0.054145 0.290795 37.480011
2009-09-08 10:32:46 51°33.836 2°59.209 23.9419 0.055586 0.298789 37.480011
2009-09-08 10:34:01 51°33.886 2°59.27 23.9599 0.055894 0.300457 37.480011
2009-09-08 10:35:01 51°33.931 2°59.323 23.9665 0.054865 0.29477 37.480011
2009-09-08 10:36:01 51°33.974 2°59.378 23.9695 0.055997 0.300989 37.480011
2009-09-08 10:37:01 51°34.011 2°59.44 23.9863 0.055483 0.298165 37.480011
2009-09-08 10:38:02 51°34.048 2°59.503 23.9807 0.057541 0.309498 37.480011
2009-09-08 10:39:01 51°34.085 2°59.567 23.993 0.055894 0.300421 37.480011
2009-09-08 10:40:02 51°34.121 2°59.633 23.9949 0.056203 0.302093 37.480011
2009-09-08 10:41:01 51°34.157 2°59.695 24.0014 0.056512 0.303787 37.480011
2009-09-08 10:42:02 51°34.195 2°59.759 24.0051 0.057541 0.309461 37.445187
2009-09-08 10:43:01 51°34.233 2°59.823 24.0263 0.057335 0.30835 37.480011
2009-09-08 10:44:01 51°34.271 2°59.887 24.0229 0.057747 0.310588 37.480011
2009-09-08 10:45:01 51°34.307 2°59.952 24.032 0.055894 0.300353 37.480011
2009-09-08 10:46:01 51°34.344 3°0.015 24.0349 0.055277 0.296932 37.480011
2009-09-08 10:47:01 51°34.382 3°0.08 24.0372 0.056718 0.304829 37.445187
2009-09-08 10:48:01 51°34.419 3°0.143 24.0408 0.059599 0.320785 37.445187
2009-09-08 10:49:01 51°34.456 3°0.206 24.0492 0.057438 0.308791 37.445187
2009-09-08 10:50:01 51°34.494 3°0.268 24.062 0.056615 0.304277 37.445187
2009-09-08 10:51:01 51°34.532 3°0.332 24.064 0.058056 0.312181 37.445187
2009-09-08 10:52:01 51°34.568 3°0.396 24.0692 0.058056 0.312203 37.445187
2009-09-08 10:53:01 51°34.605 3°0.46 24.0778 0.057129 0.307043 37.445187
2009-09-08 10:54:01 51°34.642 3°0.523 24.0817 0.057438 0.308727 37.445187
2009-09-08 10:55:01 51°34.68 3°0.586 24.0862 0.058056 0.312138 37.445187
2009-09-08 10:56:01 51°34.718 3°0.65 24.0935 0.057232 0.307559 37.445187
2009-09-08 10:57:01 51°34.757 3°0.713 24.0999 0.057232 0.307553 37.445187
2009-09-08 10:58:01 51°34.794 3°0.777 24.103 0.057232 0.307495 37.445187
2009-09-08 10:59:01 51°34.832 3°0.841 24.1051 0.05857 0.314884 37.445187
2009-09-08 11:00:01 51°34.87 3°0.905 24.1129 0.05857 0.314884 37.445187
2009-09-08 11:01:01 51°34.908 3°0.969 24.1195 0.059496 0.319933 37.445187
2009-09-08 11:02:01 51°34.946 3°1.031 24.1215 0.060628 0.326179 37.410363
2009-09-08 11:03:01 51°34.983 3°1.094 24.1295 0.058776 0.315869 37.410363
2009-09-08 11:04:01 51°35.02 3°1.156 24.1331 0.057747 0.310223 37.410363
2009-09-08 11:05:02 51°35.059 3°1.221 24.1383 0.058158 0.312485 37.410363
2009-09-08 11:06:01 51°35.083 3°1.301 24.1418 0.058158 0.312502 37.410363
2009-09-08 11:07:01 51°35.085 3°1.397 24.149 0.058673 0.315295 37.410363
2009-09-08 11:08:01 51°35.07 3°1.495 24.1518 0.058056 0.311896 37.445187
2009-09-08 11:09:01 51°35.036 3°1.59 24.1582 0.056409 0.302765 37.410363
2009-09-08 11:10:01 51°34.985 3°1.652 24.1617 0.059599 0.320436 37.410363
2009-09-08 11:11:01 51°34.934 3°1.681 24.1666 0.059908 0.32211 37.410363
2009-09-08 11:12:01 51°34.889 3°1.692 24.1707 0.06351 0.342038 37.375539
2009-09-08 11:13:01 51°34.838 3°1.695 24.1803 0.052087 0.278853 37.410363
2009-09-08 11:14:01 51°34.775 3°1.623 24.1801 0.051263 0.274274 37.410363
2009-09-08 11:15:01 51°34.759 3°1.456 24.1845 0.060731 0.326653 37.375539
2009-09-08 11:16:01 51°34.735 3°1.209 24.1892 0.058158 0.312302 37.375539
2009-09-08 11:17:01 51°34.703 3°0.906 24.1928 0.056306 0.301989 37.375539
2009-09-08 11:18:01 51°34.684 3°0.596 24.1955 0.054557 0.292368 37.375539
2009-09-08 11:19:02 51°34.675 3°0.355 24.2095 0.051778 0.277089 37.410363
2009-09-08 11:20:01 51°34.671 3°0.259 24.2282 0.06917 0.373395 37.410363
2009-09-08 11:21:02 51°34.662 3°0.215 24.2375 0.068347 0.368675 37.375539
2009-09-08 11:22:01 51°34.652 3°0.183 24.261 0.052498 0.280905 37.340715
2009-09-08 11:23:01 51°34.639 3°0.152 24.2692 0.050749 0.271298 37.305891
2009-09-08 11:24:01 51°34.625 3°0.125 24.2809 0.04972 0.265632 37.305891
2009-09-08 11:25:01 51°34.61 3°0.099 24.2945 0.048176 0.257171 37.305891
2009-09-08 11:26:01 51°34.591 3°0.075 24.3073 0.048691 0.259971 37.271067
2009-09-08 11:27:01 51°34.573 3°0.053 24.318 0.047765 0.254913 37.271067
2009-09-08 11:28:02 51°34.554 3°0.032 24.3306 0.049 0.261652 37.271067
2009-09-08 11:29:01 51°34.536 3°0.012 24.344 0.048691 0.259926 37.236243
2009-09-08 11:30:02 51°34.517 2°59.994 24.355 0.04797 0.255987 37.236243
2009-09-08 11:31:01 51°34.499 2°59.977 24.369 0.048691 0.259882 37.236243
2009-09-08 11:32:01 51°34.483 2°59.963 24.3792 0.046941 0.250311 37.236243
2009-09-08 11:33:01 51°34.465 2°59.949 24.3926 0.047147 0.251406 37.201419
2009-09-08 11:34:01 51°34.447 2°59.935 24.4055 0.047044 0.250816 37.201419
2009-09-08 11:35:01 51°34.428 2°59.921 24.4203 0.048794 0.260342 37.201419
2009-09-08 11:36:01 51°34.412 2°59.908 24.4316 0.047868 0.255261 37.201419
2009-09-08 11:37:01 51°34.394 2°59.894 24.445 0.04797 0.255809 37.166595
2009-09-08 11:38:01 51°34.366 2°59.845 24.4691 0.075447 0.408032 37.166595
2009-09-08 11:39:01 51°34.288 2°59.811 24.468 0.07555 0.408459 37.166595
2009-09-08 11:40:01 51°34.199 2°59.912 24.4847 0.050749 0.27083 37.166595
2009-09-08 11:41:01 51°34.055 3°0.075 24.5023 0.049411 0.263469 37.166595
2009-09-08 11:42:01 51°33.904 3°0.275 24.5164 0.052807 0.282028 37.131771
2009-09-08 11:43:01 51°33.777 3°0.516 23.4923 0.075139 0.40579 36.922826
2009-09-08 11:44:01 51°33.652 3°0.762 23.7754 0.061863 0.332071 37.096947
2009-09-08 11:45:01 51°33.534 3°1.005 23.7642 0.060834 0.326512 37.131771
2009-09-08 11:46:01 51°33.415 3°1.243 23.8259 0.059805 0.320826 37.096947
2009-09-08 11:47:01 51°33.296 3°1.479 23.8604 0.057335 0.307163 37.131771
2009-09-08 11:48:01 51°33.175 3°1.712 23.8398 0.059085 0.316777 37.062123
2009-09-08 11:49:01 51°33.053 3°1.946 23.7861 0.059496 0.319051 37.096947
2009-09-08 11:50:01 51°32.934 3°2.182 23.8696 0.055586 0.297405 37.062123
2009-09-08 11:51:01 51°32.816 3°2.422 23.9429 0.053322 0.284899 37.062123
2009-09-08 11:52:01 51°32.698 3°2.664 23.8842 0.053527 0.286021 37.062123
2009-09-08 11:53:02 51°32.577 3°2.908 23.8968 0.052498 0.280319 37.027298
2009-09-08 11:54:01 51°32.461 3°3.145 23.9298 0.052807 0.28198 37.027298
2009-09-08 11:55:01 51°32.348 3°3.387 23.9218 0.053219 0.284233 37.062123
2009-09-08 11:56:01 51°32.23 3°3.62 23.913 0.054454 0.290938 37.027298
2009-09-08 11:57:01 51°32.115 3°3.846 23.9749 0.053116 0.283597 37.027298
2009-09-08 11:58:01 51°32.004 3°4.072 24.0006 0.052601 0.280743 37.062123
2009-09-08 11:59:01 51°31.891 3°4.297 24.0397 0.051778 0.276191 37.027298
2009-09-08 12:00:01 51°31.778 3°4.523 23.9823 0.053836 0.287442 37.062123
2009-09-08 12:01:01 51°31.663 3°4.747 23.9773 0.054865 0.293059 37.027298
2009-09-08 12:02:01 51°31.553 3°4.975 24.0417 0.054042 0.2885 37.027298
2009-09-08 12:03:01 51°31.44 3°5.202 24.0461 0.051572 0.274945 37.062123
2009-09-08 12:04:01 51°31.324 3°5.427 24.0474 0.051881 0.276621 37.027298
2009-09-08 12:05:01 51°31.208 3°5.651 24.0533 0.050852 0.270912 37.027298
2009-09-08 12:06:01 51°31.088 3°5.872 24.0707 0.052087 0.277655 37.027298
2009-09-08 12:07:01 51°30.965 3°6.093 24.0765 0.052601 0.280447 37.027298
2009-09-08 12:08:01 51°30.844 3°6.322 24.1049 0.052293 0.278708 36.992474
2009-09-08 12:09:01 51°30.737 3°6.565 24.0878 0.050646 0.269666 37.027298
2009-09-08 12:10:01 51°30.631 3°6.812 24.0738 0.051161 0.272452 37.027298
2009-09-08 12:11:01 51°30.531 3°7.062 24.1346 0.049102 0.261182 37.027298
2009-09-08 12:12:01 51°30.427 3°7.309 24.1278 0.050543 0.269028 36.992474
2009-09-08 12:13:01 51°30.316 3°7.549 24.143 0.050337 0.267834 36.992474
2009-09-08 12:14:01 51°30.184 3°7.767 24.1522 0.050955 0.271206 36.992474
2009-09-08 12:15:01 51°30.044 3°7.977 24.1471 0.050852 0.270586 36.992474
2009-09-08 12:16:01 51°29.904 3°8.188 24.1651 0.051058 0.271693 36.992474
2009-09-08 12:17:01 51°29.764 3°8.399 24.1662 0.052087 0.277254 36.992474
2009-09-08 12:18:02 51°29.619 3°8.612 24.1733 0.05219 0.277787 36.992474
2009-09-08 12:19:01 51°29.478 3°8.818 24.1763 0.052601 0.280013 36.95765
2009-09-08 12:20:01 51°29.336 3°9.031 24.2039 0.051263 0.272684 36.992474
2009-09-08 12:21:01 51°29.195 3°9.246 24.2018 0.050852 0.270388 36.992474
2009-09-08 12:22:01 51°29.055 3°9.465 24.2011 0.052087 0.277085 36.992474
2009-09-08 12:23:01 51°28.915 3°9.682 24.2327 0.051058 0.271444 36.95765
2009-09-08 12:24:01 51°28.773 3°9.897 24.2167 0.052293 0.278154 36.95765
2009-09-08 12:25:01 51°28.628 3°10.111 24.2321 0.052498 0.279214 36.95765
2009-09-08 12:26:01 51°28.474 3°10.314 24.2456 0.05363 0.285376 36.95765
2009-09-08 12:27:01 51°28.323 3°10.52 24.2758 0.05291 0.281395 36.95765
2009-09-08 12:28:01 51°28.168 3°10.722 24.2879 0.052087 0.276887 36.95765
2009-09-08 12:29:01 51°28.014 3°10.929 24.2506 0.054248 0.288622 36.992474
2009-09-08 12:30:01 51°27.861 3°11.138 24.2522 0.056409 0.300388 36.95765
2009-09-08 12:31:01 51°27.707 3°11.349 24.2829 0.052704 0.280126 36.95765
2009-09-08 12:32:02 51°27.544 3°11.556 24.2741 0.053527 0.284539 36.992474
2009-09-08 12:33:01 51°27.389 3°11.757 24.2975 0.052601 0.279476 36.95765
2009-09-08 12:34:02 51°27.237 3°11.954 24.2951 0.05929 0.316004 36.992474
2009-09-08 12:35:01 51°27.144 3°12.076 24.276 0.069067 0.369895 36.95765
2009-09-08 12:36:01 51°27.105 3°12.194 24.29 0.066391 0.355101 36.95765
2009-09-08 12:37:01 51°27.119 3°12.268 24.3132 0.053939 0.2865 36.95765
2009-09-08 12:38:01 51°27.145 3°12.338 24.3221 0.053116 0.282019 36.95765
2009-09-08 12:39:01 51°27.146 3°12.436 24.3196 0.05363 0.284742 36.95765
2009-09-08 12:40:01 51°27.11 3°12.526 24.3266 0.055071 0.292622 36.95765
2009-09-08 12:41:02 51°27.07 3°12.605 24.3303 0.054454 0.289209 36.95765
2009-09-08 12:42:01 51°27.044 3°12.681 24.3379 0.056203 0.298714 36.95765
2009-09-08 12:43:01 51°27.025 3°12.761 24.3468 0.054865 0.291362 36.95765
2009-09-08 12:44:01 51°27.016 3°12.847 24.3495 0.055277 0.29355 36.95765
2009-09-08 12:45:02 51°27.013 3°12.946 24.3567 0.054248 0.287956 36.95765
2009-09-08 12:46:01 51°27.005 3°13.053 24.3631 0.057438 0.305262 36.95765
2009-09-08 12:47:02 51°26.994 3°13.167 24.3698 0.052704 0.279373 36.95765
2009-09-08 12:48:02 51°26.982 3°13.282 24.3752 0.054351 0.288375 36.95765
2009-09-08 12:49:01 51°26.97 3°13.392 24.3794 0.056409 0.299557 36.95765
2009-09-08 12:50:02 51°26.957 3°13.505 24.3959 0.054042 0.28654 36.95765
2009-09-08 12:51:01 51°26.945 3°13.61 24.3961 0.053733 0.284901 36.95765
2009-09-08 12:52:02 51°26.932 3°13.716 24.4035 0.054968 0.291621 36.95765
2009-09-08 12:53:01 51°26.919 3°13.818 24.4055 0.055174 0.292612 36.95765
2009-09-08 12:54:01 51°26.906 3°13.922 24.4103 0.054145 0.287085 36.95765
2009-09-08 12:55:01 51°26.894 3°14.026 24.4147 0.058364 0.309992 36.95765
2009-09-08 12:56:01 51°26.892 3°14.125 24.4218 0.056306 0.298763 36.95765
2009-09-08 12:57:01 51°26.899 3°14.22 24.4286 0.0561 0.297551 36.95765
2009-09-08 12:58:01 51°26.907 3°14.316 24.4311 0.054351 0.288048 36.95765
2009-09-08 12:59:01 51°26.916 3°14.412 24.4342 0.05538 0.293627 36.922826
2009-09-08 13:00:01 51°26.927 3°14.507 24.444 0.057541 0.305264 36.95765
2009-09-08 13:01:01 51°26.938 3°14.601 24.4462 0.056409 0.299029 36.95765
2009-09-08 13:02:01 51°26.952 3°14.693 24.4486 0.055071 0.29179 36.95765
2009-09-08 13:03:01 51°26.968 3°14.784 24.4564 0.054762 0.289849 36.922826
2009-09-08 13:04:01 51°26.984 3°14.877 24.4608 0.0561 0.297204 36.95765
2009-09-08 13:05:01 51°27.001 3°14.969 24.4655 0.058776 0.311815 36.922826
2009-09-08 13:06:01 51°27.027 3°15.044 24.4661 0.054556 0.288902 36.95765
2009-09-08 13:07:01 51°27.059 3°15.113 24.4702 0.055997 0.296725 36.922826
2009-09-08 13:08:01 51°27.09 3°15.185 24.4741 0.055894 0.296136 36.922826
2009-09-08 13:09:01 51°27.121 3°15.26 24.478 0.055688 0.294942 36.922826
2009-09-08 13:10:01 51°27.152 3°15.336 24.48 0.054762 0.289858 36.922826
2009-09-08 13:11:01 51°27.179 3°15.422 24.4846 0.055894 0.295945 36.922826
2009-09-08 13:12:01 51°27.189 3°15.53 24.4848 0.055791 0.295381 36.922826
2009-09-08 13:13:01 51°27.17 3°15.645 24.4924 0.057335 0.303643 36.922826
2009-09-08 13:14:01 51°27.125 3°15.748 24.4942 0.056306 0.298016 36.888002
2009-09-08 13:15:01 51°27.063 3°15.823 24.4977 0.057747 0.305815 36.888002
2009-09-08 13:16:01 51°27.011 3°15.866 24.4974 0.057438 0.304074 36.888002
2009-09-08 13:17:01 51°26.969 3°15.896 24.4993 0.057644 0.305147 36.888002
2009-09-08 13:18:01 51°26.928 3°15.902 24.4987 0.050852 0.268199 36.888002
2009-09-08 13:19:01 51°26.913 3°15.864 24.5057 0.05857 0.31012 36.888002
2009-09-08 13:20:01 51°26.921 3°15.719 24.5036 0.056203 0.297061 36.853178
2009-09-08 13:21:01 51°26.934 3°15.501 24.5211 0.06104 0.323465 36.888002
2009-09-08 13:22:01 51°26.878 3°15.288 24.5146 0.048999 0.257922 36.888002
2009-09-08 13:23:01 51°26.819 3°15.077 24.5179 0.054145 0.285723 36.888002
2009-09-08 13:24:01 51°26.803 3°14.858 24.5232 0.057335 0.303024 36.888002
2009-09-08 13:25:01 51°26.81 3°14.646 24.5297 0.057541 0.304125 36.888002
2009-09-08 13:26:01 51°26.849 3°14.444 24.5247 0.054248 0.286034 36.888002
2009-09-08 13:27:01 51°26.908 3°14.331 24.5377 0.06104 0.323 36.888002
2009-09-08 13:28:01 51°26.95 3°14.304 24.5402 0.060731 0.321157 36.888002
2009-09-08 13:29:01 51°26.969 3°14.32 24.6214 0.088003 0.471884 36.922826
2009-09-08 13:30:01 51°26.969 3°14.357 24.5575 0.083269 0.445166 36.888002
2009-09-08 13:31:02 51°26.962 3°14.398 24.574 0.073286 0.389843 36.853178
2009-09-08 13:32:01 51°26.955 3°14.439 24.5823 0.069581 0.369384 36.853178
2009-09-08 13:33:02 51°26.948 3°14.481 24.5904 0.06917 0.367062 36.853178
2009-09-08 13:34:01 51°26.94 3°14.523 24.5994 0.066391 0.351762 36.818354
2009-09-08 13:35:01 51°26.933 3°14.565 24.6078 0.06351 0.336027 36.818354
2009-09-08 13:36:01 51°26.93 3°14.63 24.6167 0.063818 0.337623 36.78353
2009-09-08 13:37:02 51°26.902 3°14.748 24.6743 0.049617 0.260465 36.78353
2009-09-08 13:38:01 51°26.824 3°14.785 24.6702 0.118157 0.639779 36.748706
2009-09-08 13:39:02 51°26.725 3°14.73 24.6575 0.071434 0.379156 36.748706
2009-09-08 13:40:02 51°26.574 3°14.645 24.6764 0.055277 0.29087 36.713882
2009-09-08 13:41:01 51°26.402 3°14.561 24.6897 0.051572 0.270825 36.713882
2009-09-08 13:42:02 51°26.221 3°14.482 24.7046 0.050852 0.266894 36.713882
2009-09-08 13:43:01 51°26.048 3°14.403 24.7157 0.050234 0.263607 36.713882
2009-09-08 13:44:02 51°25.87 3°14.321 24.7272 0.053733 0.282374 36.713882
2009-09-08 13:45:01 51°25.699 3°14.242 24.5067 0.096956 0.519524 36.713882
2009-09-08 13:46:02 51°25.518 3°14.175 24.168 0.058261 0.306465 36.713882
2009-09-08 13:47:02 51°25.332 3°14.137 24.6222 0.063921 0.337357 36.679058
2009-09-08 13:48:02 51°25.146 3°14.105 24.1165 0.06423 0.338601 36.679058
2009-09-08 13:49:02 51°24.96 3°14.073 24.1663 0.060422 0.318603 36.679058
2009-09-08 13:50:01 51°24.779 3°14.04 24.2006 0.060834 0.320775 36.644234
2009-09-08 13:51:02 51°24.592 3°14.014 24.1535 0.05682 0.298969 36.644234
2009-09-08 13:52:01 51°24.415 3°13.994 24.1817 0.05857 0.308349 36.644234
2009-09-08 13:53:02 51°24.239 3°13.971 24.1406 0.060731 0.319991 36.60941
2009-09-08 13:54:02 51°24.07 3°13.95 24.196 0.060319 0.317687 36.60941
2009-09-08 13:55:02 51°23.905 3°13.918 24.1837 0.0561 0.294741 36.60941
2009-09-08 13:56:01 51°23.753 3°13.852 24.3211 0.067832 0.358213 36.539762
2009-09-08 13:57:01 51°23.614 3°13.746 24.2141 0.056923 0.299044 36.574586
2009-09-08 13:58:02 51°23.478 3°13.621 24.2461 0.058261 0.306188 36.60941
2009-09-08 13:59:01 51°23.358 3°13.485 24.2535 0.056512 0.296702 36.60941
2009-09-08 14:00:02 51°23.28 3°13.295 24.262 0.061657 0.324431 36.574586
2009-09-08 14:01:01 51°23.214 3°13.1 24.2686 0.062583 0.329351 36.574586
2009-09-08 14:02:02 51°23.148 3°12.897 24.3251 0.059084 0.310367 36.574586
2009-09-08 14:03:02 51°23.083 3°12.695 24.2967 0.055688 0.291909 36.574586
2009-09-08 14:04:02 51°23.048 3°12.476 24.3308 0.053116 0.278003 36.60941
2009-09-08 14:05:02 51°23.023 3°12.252 24.3 0.052601 0.27521 36.60941
2009-09-08 14:06:01 51°23.02 3°12.027 24.3114 0.051058 0.266853 36.60941
2009-09-08 14:07:02 51°23.028 3°11.791 24.3465 0.051263 0.267869 36.60941
2009-09-08 14:08:02 51°23.037 3°11.558 24.3265 0.052087 0.272266 36.574586
2009-09-08 14:09:02 51°23.045 3°11.324 24.3633 0.051263 0.267785 36.60941
2009-09-08 14:10:01 51°23.055 3°11.09 24.3553 0.052601 0.274895 36.574586
2009-09-08 14:11:02 51°23.065 3°10.849 24.3616 0.051675 0.269868 36.574586
2009-09-08 14:12:02 51°23.073 3°10.626 24.3537 0.053219 0.278111 36.644234
2009-09-08 14:13:02 51°23.079 3°10.526 24.3759 0.054145 0.282989 36.60941
2009-09-08 14:14:02 51°23.108 3°10.485 24.3557 0.05857 0.306807 36.60941
2009-09-08 14:15:01 51°23.153 3°10.455 24.3872 0.055277 0.288976 36.60941
2009-09-08 14:16:02 51°23.22 3°10.467 24.3682 0.059187 0.309937 36.574586
2009-09-08 14:17:01 51°23.289 3°10.503 24.3805 0.060628 0.317627 36.574586
2009-09-08 14:18:02 51°23.36 3°10.531 24.3851 0.060216 0.315338 36.574586
2009-09-08 14:19:02 51°23.427 3°10.548 24.3999 0.059084 0.309117 36.574586
2009-09-08 14:20:02 51°23.494 3°10.554 24.4134 0.058879 0.307939 36.60941
2009-09-08 14:21:02 51°23.561 3°10.557 24.4139 0.058158 0.304047 36.574586
2009-09-08 14:22:02 51°23.627 3°10.56 24.4424 0.056409 0.294585 36.60941
2009-09-08 14:23:02 51°23.699 3°10.582 24.4367 0.055791 0.291231 36.574586
2009-09-08 14:24:01 51°23.767 3°10.664 24.4386 0.056512 0.295038 36.60941
2009-09-08 14:25:02 51°23.816 3°10.784 24.4409 0.057747 0.301613 36.60941
2009-09-08 14:26:02 51°23.843 3°10.913 24.4474 0.057232 0.298802 36.60941
2009-09-08 14:27:02 51°23.856 3°11.045 24.4454 0.058158 0.303709 36.60941
2009-09-08 14:28:02 51°23.869 3°11.177 24.4579 0.058981 0.308052 36.60941
2009-09-08 14:29:02 51°23.889 3°11.309 24.4658 0.059599 0.311307 36.60941
2009-09-08 14:30:02 51°23.911 3°11.441 24.4728 0.059496 0.310667 36.60941
2009-09-08 14:31:01 51°23.929 3°11.572 24.4778 0.05929 0.309492 36.60941
2009-09-08 14:32:02 51°23.945 3°11.707 24.4799 0.058776 0.306663 36.60941
2009-09-08 14:33:02 51°23.961 3°11.841 24.4879 0.059805 0.31211 36.60941
2009-09-08 14:34:02 51°23.976 3°11.972 24.4907 0.05857 0.305404 36.60941
2009-09-08 14:35:01 51°23.991 3°12.102 24.4985 0.059496 0.310333 36.574586
2009-09-08 14:36:02 51°24.007 3°12.236 24.5034 0.060011 0.312996 36.574586
2009-09-08 14:37:02 51°24.022 3°12.367 24.5113 0.059702 0.311301 36.574586
2009-09-08 14:38:02 51°24.036 3°12.497 24.5195 0.057952 0.301876 36.574586
2009-09-08 14:39:02 51°24.051 3°12.628 24.5274 0.059702 0.311141 36.574586
2009-09-08 14:40:02 51°24.066 3°12.757 24.5329 0.059393 0.309464 36.60941
2009-09-08 14:41:02 51°24.082 3°12.887 24.5411 0.058673 0.30552 36.574586
2009-09-08 14:41:59 51°24.091 3°13.01 24.5527 0.058158 0.302731 36.60941
2009-09-08 14:43:08 51°24.091 3°13.157 24.5517 0.060011 0.312556 36.574586
2009-09-08 14:44:07 51°24.091 3°13.285 24.5619 0.059599 0.310298 36.574586
2009-09-08 14:45:08 51°24.091 3°13.416 24.567 0.060731 0.316332 36.574586
2009-09-08 14:46:08 51°24.093 3°13.545 24.5728 0.05929 0.308515 36.574586
2009-09-08 14:47:07 51°24.094 3°13.671 24.58 0.060422 0.314503 36.574586
2009-09-08 14:48:08 51°24.096 3°13.801 24.5812 0.059805 0.311157 36.574586
2009-09-08 14:49:07 51°24.098 3°13.926 24.5896 0.059496 0.309411 36.574586
2009-09-08 14:50:08 51°24.101 3°14.054 24.5974 0.059908 0.311568 36.574586
2009-09-08 14:51:08 51°24.1 3°14.178 24.6011 0.060834 0.316496 36.539762
2009-09-08 14:52:08 51°24.092 3°14.293 24.6079 0.060525 0.314778 36.574586
2009-09-08 14:53:08 51°24.079 3°14.404 24.6117 0.061143 0.317999 36.539762
2009-09-08 14:54:07 51°24.064 3°14.513 24.6181 0.059908 0.311419 36.574586
2009-09-08 14:55:08 51°24.041 3°14.629 24.6231 0.065362 0.340498 36.539762
2009-09-08 14:56:07 51°23.973 3°14.736 24.6319 0.055997 0.290306 36.574586
2009-09-08 14:57:08 51°23.925 3°14.791 24.6376 0.058055 0.301267 36.539762
2009-09-08 14:58:07 51°23.875 3°14.76 24.6403 0.057335 0.297355 36.539762
2009-09-08 14:59:08 51°23.851 3°14.72 24.6437 0.05857 0.303882 36.539762
2009-09-08 15:00:07 51°23.849 3°14.71 24.6485 0.059496 0.308795 36.539762
2009-09-08 15:01:07 51°23.854 3°14.712 24.6539 0.064641 0.336325 36.504938
2009-09-08 15:02:07 51°23.823 3°14.635 24.6606 0.05857 0.303647 36.504938
2009-09-08 15:03:08 51°23.738 3°14.46 24.6696 0.053013 0.274012 36.539762
2009-09-08 15:04:08 51°23.643 3°14.267 24.6816 0.052704 0.272349 36.504938
2009-09-08 15:05:08 51°23.547 3°14.073 24.6837 0.053733 0.277754 36.539762
2009-09-08 15:06:08 51°23.452 3°13.879 24.6899 0.053116 0.274493 36.504938
2009-09-08 15:07:07 51°23.358 3°13.684 24.6947 0.053013 0.273909 36.504938
2009-09-08 15:08:08 51°23.257 3°13.488 24.7014 0.053218 0.274925 36.504938
2009-09-08 15:09:07 51°23.161 3°13.299 24.707 0.052395 0.270576 36.504938
2009-09-08 15:10:08 51°23.066 3°13.097 24.7145 0.053218 0.274908 36.504938
2009-09-08 15:11:08 51°22.972 3°12.892 24.7197 0.053013 0.273731 36.504938
2009-09-08 15:12:08 51°22.878 3°12.683 24.7245 0.052704 0.272056 36.504938
2009-09-08 15:13:08 51°22.781 3°12.478 24.7315 0.051366 0.264977 36.504938
2009-09-08 15:14:07 51°22.69 3°12.299 24.7347 0.053116 0.274158 36.470114
2009-09-08 15:15:08 51°22.639 3°12.131 24.7744 0.124949 0.665395 36.504938
2009-09-08 15:16:08 51°22.596 3°11.932 24.8036 0.070816 0.368537 36.43529
2009-09-08 15:17:08 51°22.545 3°11.73 24.9041 0.051675 0.26634 36.43529
2009-09-08 15:18:08 51°22.494 3°11.538 24.8864 0.064538 0.334934 36.43529
2009-09-08 15:19:07 51°22.46 3°11.43 24.8799 0.095721 0.504094 36.400466
2009-09-08 15:20:08 51°22.434 3°11.338 24.904 0.055791 0.288173 36.365641
2009-09-08 15:21:08 51°22.454 3°11.289 24.858 0.134006 0.715664 36.365641
2009-09-08 15:22:08 51°22.476 3°11.305 24.9007 0.06495 0.337204 36.365641
2009-09-08 15:23:08 51°22.496 3°11.337 24.8949 0.074418 0.387747 36.365641
2009-09-08 15:24:08 51°22.514 3°11.375 24.8973 0.082651 0.432335 36.330817
2009-09-08 15:25:07 51°22.531 3°11.417 24.908 0.077917 0.406621 36.295993
2009-09-08 15:26:08 51°22.546 3°11.461 24.9384 0.061966 0.320886 36.295993
2009-09-08 15:27:08 51°22.56 3°11.506 24.9478 0.055277 0.285172 36.295993
2009-09-08 15:28:07 51°22.572 3°11.549 24.9569 0.055071 0.284108 36.261169
2009-09-08 15:29:08 51°22.586 3°11.597 24.9672 0.054865 0.283012 36.261169
2009-09-08 15:30:07 51°22.608 3°11.663 25.0105 0.048588 0.249761 36.261169
2009-09-08 15:31:08 51°22.615 3°11.756 25.017 0.050543 0.260023 36.261169
2009-09-08 15:32:07 51°22.588 3°11.825 25.0327 0.04972 0.255683 36.226345
2009-09-08 15:33:08 51°22.524 3°11.754 25.0402 0.070301 0.365053 36.226345
2009-09-08 15:34:08 51°22.441 3°11.55 25.0561 0.054042 0.278353 36.226345
2009-09-08 15:35:08 51°22.355 3°11.319 25.0686 0.051263 0.263728 36.226345
2009-09-08 15:36:08 51°22.271 3°11.087 25.0828 0.054865 0.282745 36.226345
2009-09-08 15:37:08 51°22.173 3°10.873 25.0996 0.051881 0.266857 36.191521
2009-09-08 15:38:08 51°22.074 3°10.662 24.2106 0.082033 0.427092 36.087049
2009-09-08 15:39:08 51°21.976 3°10.452 24.3786 0.078123 0.407266 36.052225
2009-09-08 15:40:08 51°21.877 3°10.238 24.389 0.072977 0.37938 36.052225
2009-09-08 15:41:08 51°21.779 3°10.02 24.4643 0.069993 0.363365 36.052225
2009-09-08 15:42:08 51°21.68 3°9.803 24.4955 0.063098 0.326511 36.052225
2009-09-08 15:43:08 51°21.583 3°9.585 24.4471 0.063818 0.330258 36.017401
2009-09-08 15:44:08 51°21.486 3°9.367 24.4751 0.065465 0.338971 36.017401
2009-09-08 15:45:08 51°21.388 3°9.148 24.5177 0.063818 0.330079 36.017401
2009-09-08 15:46:08 51°21.29 3°8.925 24.5044 0.063818 0.330106 36.017401
2009-09-08 15:47:08 51°21.191 3°8.698 24.5549 0.060731 0.313676 36.017401
2009-09-08 15:48:08 51°21.089 3°8.467 24.5244 0.060731 0.313599 36.017401
2009-09-08 15:49:08 51°20.984 3°8.24 24.5552 0.061863 0.319568 36.017401
2009-09-08 15:50:08 51°20.882 3°8.015 24.5708 0.061966 0.320099 36.017401
2009-09-08 15:51:08 51°20.776 3°7.797 24.6107 0.058981 0.304176 36.017401
2009-09-08 15:52:08 51°20.671 3°7.576 24.5972 0.057644 0.297043 36.017401
2009-09-08 15:53:08 51°20.568 3°7.356 24.614 0.057232 0.294854 35.982577
2009-09-08 15:54:08 51°20.465 3°7.138 24.6005 0.059084 0.304581 36.017401
2009-09-08 15:55:07 51°20.364 3°6.924 24.6361 0.057438 0.295816 35.982577
2009-09-08 15:56:08 51°20.262 3°6.705 24.6337 0.058055 0.299019 35.982577
2009-09-08 15:57:08 51°20.162 3°6.488 24.6274 0.05682 0.292491 35.982577
2009-09-08 15:58:08 51°20.066 3°6.264 24.6381 0.056409 0.290272 35.982577
2009-09-08 15:59:07 51°19.967 3°6.047 24.6569 0.056512 0.290749 35.982577
2009-09-08 16:00:08 51°19.869 3°5.822 24.6371 0.057746 0.297277 35.982577
2009-09-08 16:01:08 51°19.779 3°5.593 24.6373 0.057232 0.29449 35.982577
2009-09-08 16:02:08 51°19.687 3°5.361 24.6562 0.057541 0.296081 35.982577
2009-09-08 16:03:08 51°19.597 3°5.131 24.6666 0.054968 0.282462 35.982577
2009-09-08 16:04:08 51°19.499 3°4.912 24.6797 0.054865 0.281834 35.982577
2009-09-08 16:05:08 51°19.4 3°4.691 24.7058 0.053939 0.276979 35.982577
2009-09-08 16:06:08 51°19.302 3°4.469 24.7036 0.058981 0.303484 35.947753
2009-09-08 16:07:08 51°19.203 3°4.246 24.6873 0.053527 0.274701 35.982577
2009-09-08 16:08:08 51°19.107 3°4.021 24.7036 0.055174 0.283352 35.982577
2009-09-08 16:09:08 51°19.01 3°3.796 24.7238 0.054453 0.27952 35.947753
2009-09-08 16:10:08 51°18.911 3°3.576 24.789 0.054659 0.280588 35.947753
2009-09-08 16:11:08 51°18.807 3°3.36 24.7405 0.053321 0.273519 35.947753
2009-09-08 16:12:08 51°18.704 3°3.144 24.7166 0.051675 0.264846 35.947753
2009-09-08 16:13:07 51°18.612 3°2.924 24.745 0.053939 0.276688 35.947753
2009-09-08 16:14:08 51°18.519 3°2.695 24.731 0.055071 0.282632 35.947753
2009-09-08 16:15:08 51°18.428 3°2.47 24.7433 0.053321 0.273396 35.947753
2009-09-08 16:16:08 51°18.336 3°2.243 24.7481 0.054556 0.279862 35.912929
2009-09-08 16:17:08 51°18.244 3°2.013 24.7679 0.053218 0.272803 35.912929
2009-09-08 16:18:08 51°18.153 3°1.784 24.7649 0.054145 0.277634 35.912929
2009-09-08 16:19:08 51°18.06 3°1.557 24.7773 0.053939 0.276536 35.912929
2009-09-08 16:20:08 51°17.969 3°1.33 24.7711 0.05435 0.27866 35.912929
2009-09-08 16:21:08 51°17.878 3°1.104 24.7849 0.05363 0.274846 35.912929
2009-09-08 16:22:08 51°17.786 3°0.876 24.7801 0.053218 0.272676 35.912929
2009-09-08 16:23:08 51°17.694 3°0.647 24.7963 0.053527 0.274254 35.912929
2009-09-08 16:24:07 51°17.602 3°0.423 24.8006 0.051881 0.265603 35.912929
2009-09-08 16:25:08 51°17.509 3°0.187 24.8106 0.051881 0.265565 35.912929
2009-09-08 16:26:08 51°17.417 2°59.957 24.8129 0.05363 0.274745 35.878105
2009-09-08 16:27:08 51°17.325 2°59.723 24.8146 0.054556 0.279591 35.912929
2009-09-08 16:28:08 51°17.23 2°59.493 24.822 0.053013 0.27144 35.878105
2009-09-08 16:29:08 51°17.136 2°59.262 24.816 0.052292 0.267658 35.878105
2009-09-08 16:30:08 51°17.042 2°59.03 24.8146 0.054762 0.280589 35.878105
2009-09-08 16:31:08 51°16.947 2°58.797 24.8325 0.053836 0.275699 35.878105
2009-09-08 16:32:08 51°16.854 2°58.563 24.826 0.054042 0.276759 35.878105
2009-09-08 16:33:08 51°16.762 2°58.327 24.8259 0.055174 0.282657 35.878105
2009-09-08 16:34:08 51°16.666 2°58.096 24.8329 0.054865 0.281043 35.878105
2009-09-08 16:35:08 51°16.571 2°57.864 24.8431 0.053527 0.274002 35.878105
2009-09-08 16:36:08 51°16.475 2°57.631 24.8517 0.052601 0.269134 35.843281
2009-09-08 16:37:08 51°16.381 2°57.397 24.8506 0.053939 0.276131 35.878105
2009-09-08 16:38:08 51°16.287 2°57.162 24.86 0.053218 0.272347 35.843281
2009-09-08 16:39:08 51°16.192 2°56.926 24.8618 0.053527 0.273923 35.843281
2009-09-08 16:40:08 51°16.094 2°56.694 24.8721 0.053939 0.276069 35.843281
2009-09-08 16:41:08 51°15.991 2°56.467 24.9053 0.053836 0.275499 35.808457
2009-09-08 16:42:08 51°15.885 2°56.243 24.9178 0.052292 0.267494 35.808457
2009-09-08 16:43:08 51°15.78 2°56.019 24.8908 0.05116 0.261505 35.808457
2009-09-08 16:44:08 51°15.672 2°55.798 24.9153 0.050749 0.259361 35.808457
2009-09-08 16:45:08 51°15.561 2°55.581 24.9014 0.05435 0.278216 35.808457
2009-09-08 16:46:08 51°15.438 2°55.381 24.895 0.050852 0.259885 35.808457
2009-09-08 16:47:08 51°15.298 2°55.214 24.9159 0.051469 0.263049 35.808457
2009-09-08 16:48:08 51°15.145 2°55.077 24.939 0.050749 0.259323 35.773633
2009-09-08 16:49:08 51°14.984 2°54.974 24.9351 0.05291 0.270649 35.808457
2009-09-08 16:50:08 51°14.812 2°54.919 24.9281 0.05291 0.270601 35.808457
2009-09-08 16:51:08 51°14.635 2°54.916 24.9337 0.052292 0.267353 35.808457
2009-09-08 16:52:08 51°14.461 2°54.991 24.9364 0.051778 0.264665 35.773633
2009-09-08 16:53:08 51°14.319 2°55.162 24.9682 0.051675 0.264077 35.773633
2009-09-08 16:54:08 51°14.191 2°55.349 24.9622 0.054145 0.277017 35.773633
2009-09-08 16:55:08 51°14.057 2°55.464 24.953 0.056923 0.291609 35.773633
2009-09-08 16:56:08 51°13.941 2°55.548 24.9538 0.05291 0.270532 35.773633
2009-09-08 16:57:08 51°13.842 2°55.619 24.9549 0.056306 0.288323 35.738808
2009-09-08 16:58:08 51°13.764 2°55.71 24.9566 0.057746 0.295889 35.738808
2009-09-08 16:59:12 51°13.706 2°55.819 24.9584 0.056409 0.288839 35.738808
2009-09-08 17:00:12 51°13.676 2°55.906 24.9641 0.058775 0.301273 35.738808
2009-09-08 17:01:12 51°13.664 2°55.955 24.9684 0.055791 0.28556 35.738808